sensor_id;sensor_type;location;lat;lon;timestamp;P1;durP1;ratioP1;P2;durP2;ratioP2
56670;SDS011;42545;50.054;8.306;2023-07-31T00:00:52;0.85;;;0.50;;
56670;SDS011;42545;50.054;8.306;2023-07-31T00:03:19;0.40;;;0.40;;
56670;SDS011;42545;50.054;8.306;2023-07-31T00:05:48;0.40;;;0.40;;
56670;SDS011;42545;50.054;8.306;2023-07-31T00:08:14;0.40;;;0.40;;
56670;SDS011;42545;50.054;8.306;2023-07-31T00:10:42;0.40;;;0.40;;
56670;SDS011;42545;50.054;8.306;2023-07-31T00:13:09;0.40;;;0.40;;
56670;SDS011;42545;50.054;8.306;2023-07-31T00:15:35;0.40;;;0.40;;
56670;SDS011;42545;50.054;8.306;2023-07-31T00:18:02;0.50;;;0.50;;
56670;SDS011;42545;50.054;8.306;2023-07-31T00:20:29;0.38;;;0.38;;
56670;SDS011;42545;50.054;8.306;2023-07-31T00:22:58;0.43;;;0.43;;
56670;SDS011;42545;50.054;8.306;2023-07-31T00:25:25;0.40;;;0.40;;
56670;SDS011;42545;50.054;8.306;2023-07-31T00:27:52;0.40;;;0.38;;
56670;SDS011;42545;50.054;8.306;2023-07-31T00:30:18;0.50;;;0.50;;
56670;SDS011;42545;50.054;8.306;2023-07-31T00:32:46;0.43;;;0.40;;
56670;SDS011;42545;50.054;8.306;2023-07-31T00:35:12;0.30;;;0.30;;
56670;SDS011;42545;50.054;8.306;2023-07-31T00:37:39;0.47;;;0.47;;
56670;SDS011;42545;50.054;8.306;2023-07-31T00:40:08;0.40;;;0.40;;
56670;SDS011;42545;50.054;8.306;2023-07-31T00:42:35;0.30;;;0.30;;
56670;SDS011;42545;50.054;8.306;2023-07-31T00:45:03;0.40;;;0.40;;
56670;SDS011;42545;50.054;8.306;2023-07-31T00:47:30;0.40;;;0.40;;
56670;SDS011;42545;50.054;8.306;2023-07-31T00:49:58;0.40;;;0.40;;
56670;SDS011;42545;50.054;8.306;2023-07-31T00:52:26;0.50;;;0.50;;
56670;SDS011;42545;50.054;8.306;2023-07-31T00:54:53;0.50;;;0.50;;
56670;SDS011;42545;50.054;8.306;2023-07-31T00:57:21;0.52;;;0.50;;
56670;SDS011;42545;50.054;8.306;2023-07-31T00:59:48;0.30;;;0.30;;
56670;SDS011;42545;50.054;8.306;2023-07-31T01:02:15;0.40;;;0.40;;
56670;SDS011;42545;50.054;8.306;2023-07-31T01:04:42;0.55;;;0.50;;
56670;SDS011;42545;50.054;8.306;2023-07-31T01:07:11;0.40;;;0.40;;
56670;SDS011;42545;50.054;8.306;2023-07-31T01:09:42;0.50;;;0.50;;
56670;SDS011;42545;50.054;8.306;2023-07-31T01:12:14;0.40;;;0.40;;
56670;SDS011;42545;50.054;8.306;2023-07-31T01:14:52;0.38;;;0.38;;
56670;SDS011;42545;50.054;8.306;2023-07-31T01:17:28;0.40;;;0.40;;
56670;SDS011;42545;50.054;8.306;2023-07-31T01:19:55;0.35;;;0.35;;
56670;SDS011;42545;50.054;8.306;2023-07-31T01:22:38;0.30;;;0.30;;
56670;SDS011;42545;50.054;8.306;2023-07-31T01:25:19;0.40;;;0.40;;
56670;SDS011;42545;50.054;8.306;2023-07-31T01:28:02;0.30;;;0.30;;
56670;SDS011;42545;50.054;8.306;2023-07-31T01:30:32;0.30;;;0.30;;
56670;SDS011;42545;50.054;8.306;2023-07-31T01:33:02;0.40;;;0.40;;
56670;SDS011;42545;50.054;8.306;2023-07-31T01:37:59;0.85;;;0.70;;
56670;SDS011;42545;50.054;8.306;2023-07-31T01:40:26;1.10;;;0.85;;
56670;SDS011;42545;50.054;8.306;2023-07-31T01:42:53;1.65;;;1.20;;
56670;SDS011;42545;50.054;8.306;2023-07-31T01:45:22;1.50;;;1.00;;
56670;SDS011;42545;50.054;8.306;2023-07-31T01:47:49;2.35;;;1.10;;
56670;SDS011;42545;50.054;8.306;2023-07-31T01:50:16;3.35;;;1.50;;
56670;SDS011;42545;50.054;8.306;2023-07-31T01:52:44;2.30;;;1.20;;
56670;SDS011;42545;50.054;8.306;2023-07-31T01:55:11;1.92;;;1.10;;
56670;SDS011;42545;50.054;8.306;2023-07-31T01:57:38;3.83;;;1.40;;
56670;SDS011;42545;50.054;8.306;2023-07-31T02:00:05;3.47;;;1.70;;
56670;SDS011;42545;50.054;8.306;2023-07-31T02:02:34;2.20;;;1.20;;
56670;SDS011;42545;50.054;8.306;2023-07-31T02:05:01;2.05;;;1.25;;
56670;SDS011;42545;50.054;8.306;2023-07-31T02:07:28;2.10;;;1.40;;
56670;SDS011;42545;50.054;8.306;2023-07-31T02:09:55;2.58;;;1.55;;
56670;SDS011;42545;50.054;8.306;2023-07-31T02:12:22;2.78;;;2.00;;
56670;SDS011;42545;50.054;8.306;2023-07-31T02:14:49;3.47;;;1.98;;
56670;SDS011;42545;50.054;8.306;2023-07-31T02:17:15;2.47;;;1.60;;
56670;SDS011;42545;50.054;8.306;2023-07-31T02:19:44;3.30;;;1.58;;
56670;SDS011;42545;50.054;8.306;2023-07-31T02:22:12;1.67;;;1.40;;
56670;SDS011;42545;50.054;8.306;2023-07-31T02:24:39;1.60;;;1.30;;
56670;SDS011;42545;50.054;8.306;2023-07-31T02:27:06;6.30;;;2.03;;
56670;SDS011;42545;50.054;8.306;2023-07-31T02:29:32;3.63;;;1.92;;
56670;SDS011;42545;50.054;8.306;2023-07-31T02:32:00;2.33;;;1.55;;
56670;SDS011;42545;50.054;8.306;2023-07-31T02:34:27;2.08;;;1.35;;
56670;SDS011;42545;50.054;8.306;2023-07-31T02:36:55;2.33;;;1.48;;
56670;SDS011;42545;50.054;8.306;2023-07-31T02:39:22;2.65;;;1.50;;
56670;SDS011;42545;50.054;8.306;2023-07-31T02:41:50;1.58;;;1.05;;
56670;SDS011;42545;50.054;8.306;2023-07-31T02:44:16;1.88;;;1.10;;
56670;SDS011;42545;50.054;8.306;2023-07-31T02:46:43;1.75;;;1.20;;
56670;SDS011;42545;50.054;8.306;2023-07-31T02:49:10;1.65;;;1.20;;
56670;SDS011;42545;50.054;8.306;2023-07-31T02:51:36;2.42;;;1.30;;
56670;SDS011;42545;50.054;8.306;2023-07-31T02:54:05;1.52;;;1.10;;
56670;SDS011;42545;50.054;8.306;2023-07-31T02:56:32;1.95;;;1.20;;
56670;SDS011;42545;50.054;8.306;2023-07-31T02:58:59;1.25;;;1.00;;
56670;SDS011;42545;50.054;8.306;2023-07-31T03:01:26;1.83;;;1.23;;
56670;SDS011;42545;50.054;8.306;2023-07-31T03:03:53;1.20;;;1.10;;
56670;SDS011;42545;50.054;8.306;2023-07-31T03:06:19;1.73;;;1.00;;
56670;SDS011;42545;50.054;8.306;2023-07-31T03:08:47;2.17;;;1.40;;
56670;SDS011;42545;50.054;8.306;2023-07-31T03:11:17;1.08;;;0.98;;
56670;SDS011;42545;50.054;8.306;2023-07-31T03:13:44;0.93;;;0.85;;
56670;SDS011;42545;50.054;8.306;2023-07-31T03:16:11;1.17;;;1.00;;
56670;SDS011;42545;50.054;8.306;2023-07-31T03:18:38;1.15;;;0.95;;
56670;SDS011;42545;50.054;8.306;2023-07-31T03:21:05;1.25;;;1.00;;
56670;SDS011;42545;50.054;8.306;2023-07-31T03:23:32;0.82;;;0.80;;
56670;SDS011;42545;50.054;8.306;2023-07-31T03:25:59;1.10;;;0.80;;
56670;SDS011;42545;50.054;8.306;2023-07-31T03:28:29;0.90;;;0.85;;
56670;SDS011;42545;50.054;8.306;2023-07-31T03:30:56;0.98;;;0.88;;
56670;SDS011;42545;50.054;8.306;2023-07-31T03:33:23;1.15;;;0.90;;
56670;SDS011;42545;50.054;8.306;2023-07-31T03:35:50;0.60;;;0.60;;
56670;SDS011;42545;50.054;8.306;2023-07-31T03:38:17;0.65;;;0.65;;
56670;SDS011;42545;50.054;8.306;2023-07-31T03:40:45;0.60;;;0.60;;
56670;SDS011;42545;50.054;8.306;2023-07-31T03:43:12;1.20;;;0.80;;
56670;SDS011;42545;50.054;8.306;2023-07-31T03:45:41;0.98;;;0.85;;
56670;SDS011;42545;50.054;8.306;2023-07-31T03:48:08;1.08;;;0.90;;
56670;SDS011;42545;50.054;8.306;2023-07-31T03:50:35;0.73;;;0.70;;
56670;SDS011;42545;50.054;8.306;2023-07-31T03:53:02;2.22;;;1.40;;
56670;SDS011;42545;50.054;8.306;2023-07-31T03:55:29;1.48;;;0.93;;
56670;SDS011;42545;50.054;8.306;2023-07-31T03:57:55;1.52;;;1.13;;
56670;SDS011;42545;50.054;8.306;2023-07-31T04:00:22;1.45;;;1.05;;
56670;SDS011;42545;50.054;8.306;2023-07-31T04:02:51;1.42;;;0.90;;
56670;SDS011;42545;50.054;8.306;2023-07-31T04:05:18;1.05;;;0.90;;
56670;SDS011;42545;50.054;8.306;2023-07-31T04:07:44;1.73;;;1.13;;
56670;SDS011;42545;50.054;8.306;2023-07-31T04:10:11;2.60;;;1.60;;
56670;SDS011;42545;50.054;8.306;2023-07-31T04:12:38;1.38;;;1.25;;
56670;SDS011;42545;50.054;8.306;2023-07-31T04:15:05;1.98;;;1.20;;
56670;SDS011;42545;50.054;8.306;2023-07-31T04:17:34;3.20;;;1.60;;
56670;SDS011;42545;50.054;8.306;2023-07-31T04:20:04;1.90;;;1.33;;
56670;SDS011;42545;50.054;8.306;2023-07-31T04:24:59;2.35;;;1.35;;
56670;SDS011;42545;50.054;8.306;2023-07-31T04:27:27;3.58;;;1.55;;
56670;SDS011;42545;50.054;8.306;2023-07-31T04:29:54;1.88;;;1.48;;
56670;SDS011;42545;50.054;8.306;2023-07-31T04:32:21;2.72;;;1.50;;
56670;SDS011;42545;50.054;8.306;2023-07-31T04:34:48;3.25;;;1.50;;
56670;SDS011;42545;50.054;8.306;2023-07-31T04:37:18;1.75;;;1.23;;
56670;SDS011;42545;50.054;8.306;2023-07-31T04:39:44;1.35;;;1.20;;
56670;SDS011;42545;50.054;8.306;2023-07-31T04:42:12;3.17;;;1.85;;
56670;SDS011;42545;50.054;8.306;2023-07-31T04:44:39;2.17;;;1.40;;
56670;SDS011;42545;50.054;8.306;2023-07-31T04:47:06;2.92;;;1.50;;
56670;SDS011;42545;50.054;8.306;2023-07-31T04:49:33;1.80;;;1.23;;
56670;SDS011;42545;50.054;8.306;2023-07-31T04:52:00;1.70;;;1.20;;
56670;SDS011;42545;50.054;8.306;2023-07-31T04:54:28;2.75;;;1.30;;
56670;SDS011;42545;50.054;8.306;2023-07-31T04:56:55;1.70;;;1.30;;
56670;SDS011;42545;50.054;8.306;2023-07-31T04:59:22;1.90;;;1.55;;
56670;SDS011;42545;50.054;8.306;2023-07-31T05:01:50;2.35;;;1.52;;
56670;SDS011;42545;50.054;8.306;2023-07-31T05:04:17;1.30;;;1.10;;
56670;SDS011;42545;50.054;8.306;2023-07-31T05:06:44;1.40;;;1.30;;
56670;SDS011;42545;50.054;8.306;2023-07-31T05:09:11;2.70;;;1.70;;
56670;SDS011;42545;50.054;8.306;2023-07-31T05:11:39;5.47;;;1.92;;
56670;SDS011;42545;50.054;8.306;2023-07-31T05:14:08;2.38;;;1.55;;
56670;SDS011;42545;50.054;8.306;2023-07-31T05:16:35;2.95;;;1.23;;
56670;SDS011;42545;50.054;8.306;2023-07-31T05:19:02;2.97;;;1.90;;
56670;SDS011;42545;50.054;8.306;2023-07-31T05:21:29;2.67;;;1.63;;
56670;SDS011;42545;50.054;8.306;2023-07-31T05:23:56;2.28;;;1.35;;
56670;SDS011;42545;50.054;8.306;2023-07-31T05:26:23;2.10;;;1.52;;
56670;SDS011;42545;50.054;8.306;2023-07-31T05:28:52;1.83;;;1.35;;
56670;SDS011;42545;50.054;8.306;2023-07-31T05:31:19;1.55;;;1.25;;
56670;SDS011;42545;50.054;8.306;2023-07-31T05:33:47;1.42;;;1.13;;
56670;SDS011;42545;50.054;8.306;2023-07-31T05:36:14;2.22;;;1.50;;
56670;SDS011;42545;50.054;8.306;2023-07-31T05:38:42;1.45;;;1.10;;
56670;SDS011;42545;50.054;8.306;2023-07-31T05:41:10;1.73;;;1.20;;
56670;SDS011;42545;50.054;8.306;2023-07-31T05:43:37;1.40;;;1.10;;
56670;SDS011;42545;50.054;8.306;2023-07-31T05:46:06;1.20;;;1.10;;
56670;SDS011;42545;50.054;8.306;2023-07-31T05:48:34;1.73;;;1.30;;
56670;SDS011;42545;50.054;8.306;2023-07-31T05:51:01;2.67;;;1.60;;
56670;SDS011;42545;50.054;8.306;2023-07-31T05:53:28;1.38;;;1.10;;
56670;SDS011;42545;50.054;8.306;2023-07-31T05:55:55;1.65;;;1.20;;
56670;SDS011;42545;50.054;8.306;2023-07-31T05:58:22;1.52;;;1.30;;
56670;SDS011;42545;50.054;8.306;2023-07-31T06:00:49;1.80;;;1.15;;
56670;SDS011;42545;50.054;8.306;2023-07-31T06:03:17;2.10;;;1.15;;
56670;SDS011;42545;50.054;8.306;2023-07-31T06:05:44;1.63;;;1.30;;
56670;SDS011;42545;50.054;8.306;2023-07-31T06:08:11;1.65;;;1.20;;
56670;SDS011;42545;50.054;8.306;2023-07-31T06:10:38;1.88;;;1.23;;
56670;SDS011;42545;50.054;8.306;2023-07-31T06:13:05;1.55;;;1.17;;
56670;SDS011;42545;50.054;8.306;2023-07-31T06:15:33;3.35;;;1.50;;
56670;SDS011;42545;50.054;8.306;2023-07-31T06:18:00;2.65;;;1.42;;
56670;SDS011;42545;50.054;8.306;2023-07-31T06:20:29;2.15;;;1.40;;
56670;SDS011;42545;50.054;8.306;2023-07-31T06:22:56;4.07;;;1.63;;
56670;SDS011;42545;50.054;8.306;2023-07-31T06:25:23;3.15;;;1.60;;
56670;SDS011;42545;50.054;8.306;2023-07-31T06:27:50;2.08;;;1.50;;
56670;SDS011;42545;50.054;8.306;2023-07-31T06:30:17;2.78;;;1.85;;
56670;SDS011;42545;50.054;8.306;2023-07-31T06:32:44;3.20;;;1.40;;
56670;SDS011;42545;50.054;8.306;2023-07-31T06:35:11;2.35;;;1.40;;
56670;SDS011;42545;50.054;8.306;2023-07-31T06:37:39;2.15;;;1.50;;
56670;SDS011;42545;50.054;8.306;2023-07-31T06:40:09;4.20;;;2.10;;
56670;SDS011;42545;50.054;8.306;2023-07-31T06:42:36;2.47;;;1.85;;
56670;SDS011;42545;50.054;8.306;2023-07-31T06:45:03;5.00;;;1.80;;
56670;SDS011;42545;50.054;8.306;2023-07-31T06:47:31;3.25;;;1.70;;
56670;SDS011;42545;50.054;8.306;2023-07-31T06:49:58;4.40;;;2.17;;
56670;SDS011;42545;50.054;8.306;2023-07-31T06:52:25;2.97;;;1.80;;
56670;SDS011;42545;50.054;8.306;2023-07-31T06:55:02;3.97;;;2.45;;
56670;SDS011;42545;50.054;8.306;2023-07-31T06:57:30;4.47;;;2.38;;
56670;SDS011;42545;50.054;8.306;2023-07-31T06:59:58;3.08;;;2.08;;
56670;SDS011;42545;50.054;8.306;2023-07-31T07:02:25;2.83;;;1.80;;
56670;SDS011;42545;50.054;8.306;2023-07-31T07:04:51;3.78;;;2.03;;
56670;SDS011;42545;50.054;8.306;2023-07-31T07:07:17;3.05;;;1.90;;
56670;SDS011;42545;50.054;8.306;2023-07-31T07:09:46;2.58;;;1.70;;
56670;SDS011;42545;50.054;8.306;2023-07-31T07:12:16;3.55;;;2.00;;
56670;SDS011;42545;50.054;8.306;2023-07-31T07:14:43;4.63;;;2.05;;
56670;SDS011;42545;50.054;8.306;2023-07-31T07:17:10;2.78;;;1.80;;
56670;SDS011;42545;50.054;8.306;2023-07-31T07:19:40;6.90;;;2.20;;
56670;SDS011;42545;50.054;8.306;2023-07-31T07:22:07;4.53;;;2.20;;
56670;SDS011;42545;50.054;8.306;2023-07-31T07:24:34;5.40;;;2.08;;
56670;SDS011;42545;50.054;8.306;2023-07-31T07:27:01;3.60;;;2.30;;
56670;SDS011;42545;50.054;8.306;2023-07-31T07:29:29;4.78;;;2.67;;
56670;SDS011;42545;50.054;8.306;2023-07-31T07:31:56;4.47;;;2.42;;
56670;SDS011;42545;50.054;8.306;2023-07-31T07:34:25;2.92;;;2.05;;
56670;SDS011;42545;50.054;8.306;2023-07-31T07:36:53;4.57;;;2.42;;
56670;SDS011;42545;50.054;8.306;2023-07-31T07:39:22;5.72;;;2.40;;
56670;SDS011;42545;50.054;8.306;2023-07-31T07:41:48;3.28;;;1.90;;
56670;SDS011;42545;50.054;8.306;2023-07-31T07:44:15;4.00;;;2.00;;
56670;SDS011;42545;50.054;8.306;2023-07-31T07:46:43;4.45;;;2.10;;
56670;SDS011;42545;50.054;8.306;2023-07-31T07:49:10;4.68;;;2.13;;
56670;SDS011;42545;50.054;8.306;2023-07-31T07:51:37;4.07;;;2.00;;
56670;SDS011;42545;50.054;8.306;2023-07-31T07:54:03;5.07;;;2.50;;
56670;SDS011;42545;50.054;8.306;2023-07-31T07:56:32;5.97;;;2.80;;
56670;SDS011;42545;50.054;8.306;2023-07-31T07:59:02;4.35;;;2.38;;
56670;SDS011;42545;50.054;8.306;2023-07-31T08:01:29;4.40;;;2.20;;
56670;SDS011;42545;50.054;8.306;2023-07-31T08:03:58;3.90;;;1.83;;
56670;SDS011;42545;50.054;8.306;2023-07-31T08:06:25;2.95;;;1.80;;
56670;SDS011;42545;50.054;8.306;2023-07-31T08:08:52;5.72;;;2.40;;
56670;SDS011;42545;50.054;8.306;2023-07-31T08:11:19;5.20;;;2.50;;
56670;SDS011;42545;50.054;8.306;2023-07-31T08:13:47;3.55;;;1.80;;
56670;SDS011;42545;50.054;8.306;2023-07-31T08:16:13;4.45;;;2.42;;
56670;SDS011;42545;50.054;8.306;2023-07-31T08:18:40;5.75;;;2.30;;
56670;SDS011;42545;50.054;8.306;2023-07-31T08:21:09;2.83;;;1.80;;
56670;SDS011;42545;50.054;8.306;2023-07-31T08:23:36;3.10;;;1.83;;
56670;SDS011;42545;50.054;8.306;2023-07-31T08:26:04;5.10;;;2.30;;
56670;SDS011;42545;50.054;8.306;2023-07-31T08:28:31;2.75;;;1.88;;
56670;SDS011;42545;50.054;8.306;2023-07-31T08:30:58;3.83;;;2.00;;
56670;SDS011;42545;50.054;8.306;2023-07-31T08:33:25;3.95;;;2.22;;
56670;SDS011;42545;50.054;8.306;2023-07-31T08:35:51;3.58;;;2.05;;
56670;SDS011;42545;50.054;8.306;2023-07-31T08:38:20;3.63;;;2.30;;
56670;SDS011;42545;50.054;8.306;2023-07-31T08:40:50;5.10;;;2.33;;
56670;SDS011;42545;50.054;8.306;2023-07-31T08:43:17;5.45;;;2.30;;
56670;SDS011;42545;50.054;8.306;2023-07-31T08:45:45;3.60;;;2.13;;
56670;SDS011;42545;50.054;8.306;2023-07-31T08:48:15;10.80;;;3.03;;
56670;SDS011;42545;50.054;8.306;2023-07-31T08:50:43;3.65;;;2.17;;
56670;SDS011;42545;50.054;8.306;2023-07-31T08:53:10;3.25;;;2.17;;
56670;SDS011;42545;50.054;8.306;2023-07-31T08:55:38;3.30;;;1.92;;
56670;SDS011;42545;50.054;8.306;2023-07-31T08:58:06;4.90;;;2.17;;
56670;SDS011;42545;50.054;8.306;2023-07-31T09:00:33;4.63;;;2.50;;
56670;SDS011;42545;50.054;8.306;2023-07-31T09:03:03;3.37;;;2.10;;
56670;SDS011;42545;50.054;8.306;2023-07-31T09:05:35;3.85;;;2.17;;
56670;SDS011;42545;50.054;8.306;2023-07-31T09:08:05;6.13;;;2.97;;
56670;SDS011;42545;50.054;8.306;2023-07-31T09:10:33;5.07;;;2.15;;
56670;SDS011;42545;50.054;8.306;2023-07-31T09:13:01;3.30;;;2.08;;
56670;SDS011;42545;50.054;8.306;2023-07-31T09:15:29;3.78;;;2.22;;
56670;SDS011;42545;50.054;8.306;2023-07-31T09:18:00;3.17;;;2.00;;
56670;SDS011;42545;50.054;8.306;2023-07-31T09:20:28;6.22;;;2.30;;
56670;SDS011;42545;50.054;8.306;2023-07-31T09:22:56;2.90;;;1.95;;
56670;SDS011;42545;50.054;8.306;2023-07-31T09:25:32;2.63;;;1.85;;
56670;SDS011;42545;50.054;8.306;2023-07-31T09:28:03;3.22;;;2.13;;
56670;SDS011;42545;50.054;8.306;2023-07-31T09:30:32;4.22;;;2.17;;
56670;SDS011;42545;50.054;8.306;2023-07-31T09:33:11;5.57;;;2.33;;
56670;SDS011;42545;50.054;8.306;2023-07-31T09:35:40;3.25;;;2.00;;
56670;SDS011;42545;50.054;8.306;2023-07-31T09:38:17;4.17;;;2.60;;
56670;SDS011;42545;50.054;8.306;2023-07-31T09:40:45;4.75;;;2.17;;
56670;SDS011;42545;50.054;8.306;2023-07-31T09:43:23;5.38;;;2.25;;
56670;SDS011;42545;50.054;8.306;2023-07-31T09:45:56;4.60;;;2.30;;
56670;SDS011;42545;50.054;8.306;2023-07-31T09:48:23;3.85;;;1.92;;
56670;SDS011;42545;50.054;8.306;2023-07-31T09:50:52;4.88;;;2.30;;
56670;SDS011;42545;50.054;8.306;2023-07-31T09:53:20;3.83;;;1.80;;
56670;SDS011;42545;50.054;8.306;2023-07-31T09:55:55;3.13;;;2.20;;
56670;SDS011;42545;50.054;8.306;2023-07-31T09:58:26;4.70;;;2.10;;
56670;SDS011;42545;50.054;8.306;2023-07-31T10:00:55;4.95;;;2.63;;
56670;SDS011;42545;50.054;8.306;2023-07-31T10:03:24;2.95;;;2.15;;
56670;SDS011;42545;50.054;8.306;2023-07-31T10:05:53;3.78;;;2.13;;
56670;SDS011;42545;50.054;8.306;2023-07-31T10:08:22;2.88;;;1.73;;
56670;SDS011;42545;50.054;8.306;2023-07-31T10:10:54;7.28;;;2.63;;
56670;SDS011;42545;50.054;8.306;2023-07-31T10:13:26;5.88;;;2.60;;
56670;SDS011;42545;50.054;8.306;2023-07-31T10:15:57;3.88;;;1.95;;
56670;SDS011;42545;50.054;8.306;2023-07-31T10:18:25;4.30;;;2.17;;
56670;SDS011;42545;50.054;8.306;2023-07-31T10:20:53;3.97;;;1.98;;
56670;SDS011;42545;50.054;8.306;2023-07-31T10:23:23;2.72;;;1.80;;
56670;SDS011;42545;50.054;8.306;2023-07-31T10:25:51;3.47;;;1.70;;
56670;SDS011;42545;50.054;8.306;2023-07-31T10:28:19;2.63;;;1.88;;
56670;SDS011;42545;50.054;8.306;2023-07-31T10:30:49;3.78;;;1.98;;
56670;SDS011;42545;50.054;8.306;2023-07-31T10:33:18;3.60;;;2.30;;
56670;SDS011;42545;50.054;8.306;2023-07-31T10:35:46;5.47;;;2.50;;
56670;SDS011;42545;50.054;8.306;2023-07-31T10:38:13;4.70;;;2.33;;
56670;SDS011;42545;50.054;8.306;2023-07-31T10:40:41;4.07;;;2.30;;
56670;SDS011;42545;50.054;8.306;2023-07-31T10:43:09;5.75;;;2.72;;
56670;SDS011;42545;50.054;8.306;2023-07-31T10:45:52;5.75;;;2.70;;
56670;SDS011;42545;50.054;8.306;2023-07-31T10:48:20;5.75;;;2.55;;
56670;SDS011;42545;50.054;8.306;2023-07-31T10:50:48;6.30;;;2.60;;
56670;SDS011;42545;50.054;8.306;2023-07-31T10:53:23;5.30;;;2.50;;
56670;SDS011;42545;50.054;8.306;2023-07-31T10:55:51;5.47;;;2.25;;
56670;SDS011;42545;50.054;8.306;2023-07-31T10:58:18;5.82;;;2.40;;
56670;SDS011;42545;50.054;8.306;2023-07-31T11:00:46;7.80;;;2.78;;
56670;SDS011;42545;50.054;8.306;2023-07-31T11:03:15;5.00;;;2.47;;
56670;SDS011;42545;50.054;8.306;2023-07-31T11:05:49;5.70;;;2.80;;
56670;SDS011;42545;50.054;8.306;2023-07-31T11:08:19;6.13;;;2.53;;
56670;SDS011;42545;50.054;8.306;2023-07-31T11:10:48;3.10;;;2.33;;
56670;SDS011;42545;50.054;8.306;2023-07-31T11:13:16;4.30;;;2.55;;
56670;SDS011;42545;50.054;8.306;2023-07-31T11:15:43;6.03;;;2.50;;
56670;SDS011;42545;50.054;8.306;2023-07-31T11:18:10;5.57;;;2.55;;
56670;SDS011;42545;50.054;8.306;2023-07-31T11:20:39;4.47;;;2.30;;
56670;SDS011;42545;50.054;8.306;2023-07-31T11:23:07;3.53;;;2.20;;
56670;SDS011;42545;50.054;8.306;2023-07-31T11:25:36;5.88;;;2.40;;
56670;SDS011;42545;50.054;8.306;2023-07-31T11:28:05;4.00;;;2.50;;
56670;SDS011;42545;50.054;8.306;2023-07-31T11:30:33;3.90;;;2.35;;
56670;SDS011;42545;50.054;8.306;2023-07-31T11:33:01;4.28;;;2.55;;
56670;SDS011;42545;50.054;8.306;2023-07-31T11:35:30;5.43;;;2.40;;
56670;SDS011;42545;50.054;8.306;2023-07-31T11:37:59;4.20;;;2.20;;
56670;SDS011;42545;50.054;8.306;2023-07-31T11:40:26;7.67;;;3.07;;
56670;SDS011;42545;50.054;8.306;2023-07-31T11:42:55;5.78;;;2.72;;
56670;SDS011;42545;50.054;8.306;2023-07-31T11:45:24;3.13;;;2.42;;
56670;SDS011;42545;50.054;8.306;2023-07-31T11:47:53;3.97;;;2.40;;
56670;SDS011;42545;50.054;8.306;2023-07-31T11:50:21;3.80;;;2.10;;
56670;SDS011;42545;50.054;8.306;2023-07-31T11:55:21;5.68;;;2.45;;
56670;SDS011;42545;50.054;8.306;2023-07-31T11:57:49;7.20;;;2.95;;
56670;SDS011;42545;50.054;8.306;2023-07-31T12:00:18;6.60;;;2.83;;
56670;SDS011;42545;50.054;8.306;2023-07-31T12:02:45;4.80;;;2.60;;
56670;SDS011;42545;50.054;8.306;2023-07-31T12:05:12;3.95;;;2.47;;
56670;SDS011;42545;50.054;8.306;2023-07-31T12:07:46;3.63;;;2.10;;
56670;SDS011;42545;50.054;8.306;2023-07-31T12:12:59;4.55;;;2.38;;
56670;SDS011;42545;50.054;8.306;2023-07-31T12:15:34;6.30;;;2.90;;
56670;SDS011;42545;50.054;8.306;2023-07-31T12:18:07;4.88;;;2.47;;
56670;SDS011;42545;50.054;8.306;2023-07-31T12:20:39;3.25;;;2.00;;
56670;SDS011;42545;50.054;8.306;2023-07-31T12:23:07;4.93;;;2.30;;
56670;SDS011;42545;50.054;8.306;2023-07-31T12:25:35;3.95;;;2.60;;
56670;SDS011;42545;50.054;8.306;2023-07-31T12:28:06;5.28;;;2.55;;
56670;SDS011;42545;50.054;8.306;2023-07-31T12:30:36;5.57;;;2.10;;
56670;SDS011;42545;50.054;8.306;2023-07-31T12:33:05;3.40;;;1.83;;
56670;SDS011;42545;50.054;8.306;2023-07-31T12:35:36;3.63;;;2.00;;
56670;SDS011;42545;50.054;8.306;2023-07-31T12:38:04;5.03;;;2.55;;
56670;SDS011;42545;50.054;8.306;2023-07-31T12:40:31;3.35;;;2.50;;
56670;SDS011;42545;50.054;8.306;2023-07-31T12:43:01;3.75;;;2.55;;
56670;SDS011;42545;50.054;8.306;2023-07-31T12:45:29;3.60;;;2.17;;
56670;SDS011;42545;50.054;8.306;2023-07-31T12:47:57;4.45;;;2.28;;
56670;SDS011;42545;50.054;8.306;2023-07-31T12:50:24;4.75;;;2.63;;
56670;SDS011;42545;50.054;8.306;2023-07-31T12:52:51;7.43;;;2.58;;
56670;SDS011;42545;50.054;8.306;2023-07-31T12:55:19;4.57;;;2.50;;
56670;SDS011;42545;50.054;8.306;2023-07-31T12:57:47;5.45;;;2.65;;
56670;SDS011;42545;50.054;8.306;2023-07-31T13:00:19;4.95;;;2.85;;
56670;SDS011;42545;50.054;8.306;2023-07-31T13:02:46;6.03;;;2.60;;
56670;SDS011;42545;50.054;8.306;2023-07-31T13:05:13;4.95;;;2.50;;
56670;SDS011;42545;50.054;8.306;2023-07-31T13:07:40;4.28;;;2.35;;
56670;SDS011;42545;50.054;8.306;2023-07-31T13:10:07;4.78;;;2.10;;
56670;SDS011;42545;50.054;8.306;2023-07-31T13:12:35;5.07;;;2.33;;
56670;SDS011;42545;50.054;8.306;2023-07-31T13:15:01;3.33;;;2.20;;
56670;SDS011;42545;50.054;8.306;2023-07-31T13:17:30;4.07;;;2.10;;
56670;SDS011;42545;50.054;8.306;2023-07-31T13:19:57;5.63;;;2.00;;
56670;SDS011;42545;50.054;8.306;2023-07-31T13:22:24;3.78;;;2.47;;
56670;SDS011;42545;50.054;8.306;2023-07-31T13:24:51;4.90;;;2.28;;
56670;SDS011;42545;50.054;8.306;2023-07-31T13:27:18;5.45;;;2.22;;
56670;SDS011;42545;50.054;8.306;2023-07-31T13:29:46;4.03;;;2.03;;
56670;SDS011;42545;50.054;8.306;2023-07-31T13:32:13;3.78;;;2.50;;
56670;SDS011;42545;50.054;8.306;2023-07-31T13:34:42;3.90;;;2.15;;
56670;SDS011;42545;50.054;8.306;2023-07-31T13:37:08;2.65;;;1.80;;
56670;SDS011;42545;50.054;8.306;2023-07-31T13:39:35;6.10;;;2.60;;
56670;SDS011;42545;50.054;8.306;2023-07-31T13:42:02;3.35;;;2.22;;
56670;SDS011;42545;50.054;8.306;2023-07-31T13:44:31;5.20;;;2.28;;
56670;SDS011;42545;50.054;8.306;2023-07-31T13:46:58;6.22;;;2.45;;
56670;SDS011;42545;50.054;8.306;2023-07-31T13:49:25;4.38;;;2.00;;
56670;SDS011;42545;50.054;8.306;2023-07-31T13:51:53;3.38;;;2.20;;
56670;SDS011;42545;50.054;8.306;2023-07-31T13:54:20;3.40;;;2.00;;
56670;SDS011;42545;50.054;8.306;2023-07-31T13:56:46;6.28;;;2.40;;
56670;SDS011;42545;50.054;8.306;2023-07-31T13:59:13;3.38;;;2.65;;
56670;SDS011;42545;50.054;8.306;2023-07-31T14:01:41;3.20;;;2.03;;
56670;SDS011;42545;50.054;8.306;2023-07-31T14:04:09;4.50;;;2.13;;
56670;SDS011;42545;50.054;8.306;2023-07-31T14:06:36;5.35;;;2.67;;
56670;SDS011;42545;50.054;8.306;2023-07-31T14:09:04;5.20;;;2.40;;
56670;SDS011;42545;50.054;8.306;2023-07-31T14:11:32;3.42;;;2.17;;
56670;SDS011;42545;50.054;8.306;2023-07-31T14:13:59;4.55;;;1.85;;
56670;SDS011;42545;50.054;8.306;2023-07-31T14:16:26;4.53;;;2.13;;
56670;SDS011;42545;50.054;8.306;2023-07-31T14:18:53;3.85;;;1.98;;
56670;SDS011;42545;50.054;8.306;2023-07-31T14:21:20;4.43;;;2.22;;
56670;SDS011;42545;50.054;8.306;2023-07-31T14:23:48;4.57;;;2.25;;
56670;SDS011;42545;50.054;8.306;2023-07-31T14:26:16;3.58;;;2.13;;
56670;SDS011;42545;50.054;8.306;2023-07-31T14:28:43;4.65;;;2.10;;
56670;SDS011;42545;50.054;8.306;2023-07-31T14:31:10;4.00;;;2.30;;
56670;SDS011;42545;50.054;8.306;2023-07-31T14:33:37;3.50;;;2.10;;
56670;SDS011;42545;50.054;8.306;2023-07-31T14:36:04;3.90;;;2.50;;
56670;SDS011;42545;50.054;8.306;2023-07-31T14:38:31;3.60;;;2.45;;
56670;SDS011;42545;50.054;8.306;2023-07-31T14:40:59;4.05;;;2.50;;
56670;SDS011;42545;50.054;8.306;2023-07-31T14:43:27;5.72;;;2.90;;
56670;SDS011;42545;50.054;8.306;2023-07-31T14:45:54;4.65;;;2.53;;
56670;SDS011;42545;50.054;8.306;2023-07-31T14:48:24;3.30;;;2.20;;
56670;SDS011;42545;50.054;8.306;2023-07-31T14:50:51;5.95;;;2.22;;
56670;SDS011;42545;50.054;8.306;2023-07-31T14:53:18;3.95;;;2.60;;
56670;SDS011;42545;50.054;8.306;2023-07-31T14:55:45;7.15;;;2.72;;
56670;SDS011;42545;50.054;8.306;2023-07-31T14:58:12;6.50;;;2.58;;
56670;SDS011;42545;50.054;8.306;2023-07-31T15:00:41;2.72;;;2.05;;
56670;SDS011;42545;50.054;8.306;2023-07-31T15:03:08;6.75;;;2.38;;